Time;durP1;ratioP1;P1;durP2;ratioP2;P2;SDS_P1;SDS_P2;PMS_P1;PMS_P2;Temp;Humidity;BMP_temperature;BMP_pressure;BME280_temperature;BME280_humidity;BME280_pressure;Samples;Min_cycle;Max_cycle;Signal;HPM_P1;HPM_P2
2021/07/30 00:00:22;;;;;;;5.53;4.60;;;16.30;99.90;;;;;;5068381;28;20184;-63
2021/07/30 00:02:48;;;;;;;5.90;4.70;;;16.50;99.90;;;;;;5068553;28;20563;-63
2021/07/30 00:05:14;;;;;;;4.97;4.57;;;16.10;99.90;;;;;;5064657;28;20216;-63
2021/07/30 00:07:39;;;;;;;5.20;4.80;;;16.30;99.90;;;;;;5067731;28;20577;-63
2021/07/30 00:10:05;;;;;;;6.73;4.80;;;16.40;99.90;;;;;;5066681;28;20630;-63
2021/07/30 00:12:31;;;;;;;5.03;4.53;;;16.20;99.90;;;;;;5068726;28;20267;-62
2021/07/30 00:14:57;;;;;;;5.83;4.43;;;15.80;99.90;;;;;;5061640;28;20280;-63
2021/07/30 00:17:22;;;;;;;5.00;4.60;;;16.10;99.90;;;;;;5068275;28;20191;-62
2021/07/30 00:19:48;;;;;;;5.27;4.20;;;16.40;99.90;;;;;;5066455;28;20192;-62
2021/07/30 00:22:14;;;;;;;5.73;4.70;;;16.10;99.90;;;;;;5066191;28;20181;-63
2021/07/30 00:24:39;;;;;;;4.87;4.37;;;15.90;99.90;;;;;;5066609;28;20221;-63
2021/07/30 00:27:05;;;;;;;4.73;4.20;;;16.30;99.90;;;;;;5067465;28;20250;-63
2021/07/30 00:29:30;;;;;;;7.37;4.67;;;16.30;99.90;;;;;;5065680;28;20510;-62
2021/07/30 00:31:56;;;;;;;4.97;4.53;;;15.90;99.90;;;;;;5067670;28;20185;-63
2021/07/30 00:34:22;;;;;;;4.70;4.30;;;16.00;99.90;;;;;;5065952;28;20259;-63
2021/07/30 00:36:47;;;;;;;5.77;4.60;;;16.10;99.90;;;;;;5068248;28;20196;-63
2021/07/30 00:39:13;;;;;;;4.77;4.23;;;15.80;99.90;;;;;;5066527;28;20200;-62
2021/07/30 00:41:41;;;;;;;4.90;4.40;;;15.90;99.90;;;;;;5067551;28;20181;-62
2021/07/30 00:44:07;;;;;;;4.53;4.13;;;15.90;99.90;;;;;;5062572;28;20189;-66
2021/07/30 00:46:34;;;;;;;5.05;4.60;;;16.00;99.90;;;;;;5065181;28;20283;-62
2021/07/30 00:49:00;;;;;;;6.57;4.60;;;15.80;99.90;;;;;;5068460;28;20180;-64
2021/07/30 00:51:27;;;;;;;6.20;4.00;;;15.90;99.90;;;;;;5067756;28;20181;-64
2021/07/30 00:53:54;;;;;;;5.50;5.00;;;15.70;99.90;;;;;;5067463;28;20883;-63
2021/07/30 00:56:20;;;;;;;6.03;4.40;;;15.70;99.90;;;;;;5067772;28;20213;-64
2021/07/30 00:58:47;;;;;;;4.77;3.83;;;15.80;99.90;;;;;;5067445;28;20955;-64
2021/07/30 01:01:13;;;;;;;5.05;3.90;;;15.60;99.90;;;;;;5067798;28;20807;-64
2021/07/30 01:03:39;;;;;;;5.47;4.57;;;15.70;99.90;;;;;;5068036;28;20188;-64
2021/07/30 01:06:05;;;;;;;4.60;4.20;;;15.40;99.90;;;;;;5067519;28;20603;-64
2021/07/30 01:08:31;;;;;;;4.73;4.23;;;15.50;99.90;;;;;;5067163;28;20516;-63
2021/07/30 01:10:56;;;;;;;4.60;4.10;;;15.60;99.90;;;;;;5063073;28;20511;-64
2021/07/30 01:13:22;;;;;;;4.80;4.40;;;15.60;99.90;;;;;;5062130;28;20269;-64
2021/07/30 01:15:48;;;;;;;5.50;4.43;;;15.30;99.90;;;;;;5062384;28;20205;-65
2021/07/30 01:18:13;;;;;;;4.90;4.10;;;15.40;99.90;;;;;;5070310;28;20181;-64
2021/07/30 01:20:44;;;;;;;5.23;4.80;;;15.50;99.90;;;;;;5067717;28;20215;-64
2021/07/30 01:23:10;;;;;;;4.90;4.07;;;15.30;99.90;;;;;;5067169;28;20189;-64
2021/07/30 01:25:36;;;;;;;4.63;4.05;;;15.50;99.90;;;;;;5067146;28;20273;-64
2021/07/30 01:28:02;;;;;;;4.78;4.38;;;15.50;99.90;;;;;;5067410;28;20211;-64
2021/07/30 01:30:29;;;;;;;4.17;3.87;;;15.30;99.90;;;;;;5066809;28;20216;-63
2021/07/30 01:32:55;;;;;;;5.80;4.97;;;15.30;99.90;;;;;;5066453;28;20446;-64
2021/07/30 01:35:21;;;;;;;5.00;4.53;;;15.50;99.90;;;;;;5066697;28;20197;-65
2021/07/30 01:37:46;;;;;;;4.65;4.25;;;15.40;99.90;;;;;;5066151;28;20235;-64
2021/07/30 01:40:12;;;;;;;6.00;4.73;;;15.40;99.90;;;;;;5066943;28;20639;-64
2021/07/30 01:42:39;;;;;;;4.77;4.37;;;15.40;99.90;;;;;;5067328;28;20181;-64
2021/07/30 01:45:06;;;;;;;4.80;4.30;;;15.40;99.90;;;;;;5048499;28;20427;-64
2021/07/30 01:47:32;;;;;;;4.55;4.15;;;15.30;99.90;;;;;;5049627;28;20215;-63
2021/07/30 01:49:57;;;;;;;5.40;4.90;;;15.40;99.90;;;;;;5051030;28;20260;-64
2021/07/30 01:52:23;;;;;;;4.80;4.40;;;15.40;99.90;;;;;;5053868;28;20203;-66
2021/07/30 01:54:48;;;;;;;5.23;4.43;;;15.30;99.90;;;;;;5064382;28;20177;-63
2021/07/30 01:57:16;;;;;;;5.27;4.37;;;15.50;99.90;;;;;;5053942;28;20568;-63
2021/07/30 01:59:42;;;;;;;5.45;4.72;;;15.40;99.90;;;;;;5052470;28;20555;-63
2021/07/30 02:02:08;;;;;;;4.63;4.22;;;15.30;99.90;;;;;;5053822;28;20678;-63
2021/07/30 02:04:33;;;;;;;7.73;4.33;;;15.10;99.90;;;;;;5051175;28;20217;-63
2021/07/30 02:07:00;;;;;;;4.47;3.97;;;15.20;99.90;;;;;;5050637;28;20588;-63
2021/07/30 02:09:29;;;;;;;5.18;4.68;;;15.10;99.90;;;;;;5048052;28;20541;-63
2021/07/30 02:11:54;;;;;;;4.82;4.20;;;15.30;99.90;;;;;;5053015;28;20188;-63
2021/07/30 02:14:24;;;;;;;5.47;4.30;;;15.20;99.90;;;;;;5053282;28;20177;-62
2021/07/30 02:17:00;;;;;;;4.47;4.07;;;15.20;99.90;;;;;;5052604;28;20201;-63
2021/07/30 02:19:26;;;;;;;5.50;4.20;;;15.10;99.90;;;;;;5051880;28;20199;-63
2021/07/30 02:21:54;;;;;;;5.57;3.97;;;15.20;99.90;;;;;;5051519;28;20181;-63
2021/07/30 02:24:20;;;;;;;5.55;4.30;;;14.90;99.90;;;;;;5052379;28;20517;-64
2021/07/30 02:26:46;;;;;;;5.10;4.57;;;15.20;99.90;;;;;;5052565;28;20753;-63
2021/07/30 02:29:12;;;;;;;5.07;4.60;;;15.30;99.90;;;;;;5050813;28;20186;-64
2021/07/30 02:31:38;;;;;;;4.43;4.03;;;15.00;99.90;;;;;;5049517;28;20442;-64
2021/07/30 02:34:04;;;;;;;4.80;4.35;;;15.20;99.90;;;;;;5050580;28;20455;-63
2021/07/30 02:36:30;;;;;;;5.53;4.53;;;15.20;99.90;;;;;;5053058;28;20213;-63
2021/07/30 02:38:55;;;;;;;7.60;4.03;;;15.10;99.90;;;;;;5053598;28;20192;-63
2021/07/30 02:41:21;;;;;;;5.83;4.87;;;14.90;99.90;;;;;;5053006;28;20277;-64
2021/07/30 02:43:47;;;;;;;4.67;4.27;;;15.00;99.90;;;;;;5056746;28;20201;-63
2021/07/30 02:46:16;;;;;;;4.90;4.47;;;15.10;99.90;;;;;;5067871;28;20220;-63
2021/07/30 02:48:44;;;;;;;5.20;4.43;;;14.80;99.90;;;;;;5070057;28;20180;-63
2021/07/30 02:51:11;;;;;;;4.70;4.25;;;15.20;99.90;;;;;;5062826;28;20252;-64
2021/07/30 02:53:37;;;;;;;4.82;3.83;;;15.10;99.90;;;;;;5069914;28;20639;-64
2021/07/30 02:56:03;;;;;;;5.13;4.72;;;15.30;99.90;;;;;;5066364;28;20273;-64
2021/07/30 02:58:30;;;;;;;4.70;4.30;;;14.90;99.90;;;;;;5069764;28;20826;-63
2021/07/30 03:00:56;;;;;;;4.55;4.15;;;14.90;99.90;;;;;;5070024;28;20306;-64
2021/07/30 03:03:22;;;;;;;4.90;4.50;;;14.80;99.90;;;;;;5069433;28;20276;-63
2021/07/30 03:05:48;;;;;;;4.90;4.43;;;15.00;99.90;;;;;;5069392;28;20628;-64
2021/07/30 03:08:14;;;;;;;4.87;4.47;;;14.90;99.90;;;;;;5065943;28;20189;-63
2021/07/30 03:10:39;;;;;;;5.20;4.70;;;15.10;99.90;;;;;;5059373;28;20176;-63
2021/07/30 03:13:05;;;;;;;5.50;4.53;;;15.10;99.90;;;;;;5062014;28;20722;-63
2021/07/30 03:15:30;;;;;;;4.33;3.93;;;14.90;99.90;;;;;;5062581;28;20675;-63
2021/07/30 03:17:56;;;;;;;4.77;4.37;;;15.20;99.90;;;;;;5069401;28;20173;-63
2021/07/30 03:20:22;;;;;;;5.07;4.43;;;14.80;99.90;;;;;;5068821;28;20188;-63
2021/07/30 03:22:47;;;;;;;5.53;4.23;;;14.80;99.90;;;;;;5066758;28;20762;-63
2021/07/30 03:25:13;;;;;;;5.27;4.77;;;15.00;99.90;;;;;;5065134;28;20196;-63
2021/07/30 03:27:39;;;;;;;5.17;4.67;;;14.80;99.90;;;;;;5067556;28;20200;-63
2021/07/30 03:30:05;;;;;;;5.00;4.50;;;14.70;99.90;;;;;;5062367;28;20176;-64
2021/07/30 03:32:30;;;;;;;5.05;4.38;;;14.60;99.90;;;;;;5066948;28;20185;-63
2021/07/30 03:34:56;;;;;;;5.00;4.37;;;14.70;99.90;;;;;;5065708;28;20186;-63
2021/07/30 03:37:22;;;;;;;5.33;4.83;;;14.70;99.90;;;;;;5066061;28;20445;-63
2021/07/30 03:39:47;;;;;;;5.00;4.50;;;14.50;99.90;;;;;;5068772;28;20584;-62
2021/07/30 03:42:13;;;;;;;4.70;4.30;;;14.60;99.90;;;;;;5066873;28;20267;-64
2021/07/30 03:44:38;;;;;;;5.47;4.97;;;14.60;99.90;;;;;;5066086;28;20197;-63
2021/07/30 03:47:04;;;;;;;4.97;4.57;;;14.50;99.90;;;;;;5064157;28;20209;-63
2021/07/30 03:49:30;;;;;;;4.80;4.40;;;14.60;99.90;;;;;;5068502;28;20629;-63
2021/07/30 03:51:56;;;;;;;5.30;4.80;;;14.70;99.90;;;;;;5065128;28;20180;-63
2021/07/30 03:54:21;;;;;;;5.03;4.63;;;14.70;99.90;;;;;;5067785;28;20599;-63
2021/07/30 03:56:47;;;;;;;5.77;4.30;;;14.60;99.90;;;;;;5066201;28;20192;-64
2021/07/30 03:59:13;;;;;;;4.60;4.20;;;14.60;99.90;;;;;;5068245;28;20242;-63
2021/07/30 04:01:47;;;;;;;5.80;5.17;;;14.80;99.90;;;;;;5065470;28;20445;-63
2021/07/30 04:04:16;;;;;;;4.38;3.97;;;14.50;99.90;;;;;;5066126;28;20634;-63
2021/07/30 04:06:44;;;;;;;6.40;5.90;;;14.50;99.90;;;;;;5068144;28;20212;-63
2021/07/30 04:09:11;;;;;;;5.10;4.70;;;14.60;99.90;;;;;;5067655;28;20610;-64
2021/07/30 04:11:37;;;;;;;5.30;4.80;;;14.60;99.90;;;;;;5067821;28;20185;-62
2021/07/30 04:14:03;;;;;;;4.95;4.50;;;14.70;99.90;;;;;;5064567;28;20264;-63
2021/07/30 04:16:30;;;;;;;4.33;3.93;;;14.50;99.90;;;;;;5062146;28;20287;-57
2021/07/30 04:18:55;;;;;;;5.85;4.93;;;14.70;99.90;;;;;;5064287;28;20187;-57
2021/07/30 04:21:21;;;;;;;5.70;4.40;;;14.40;99.90;;;;;;5070424;28;20297;-57
2021/07/30 04:23:46;;;;;;;6.00;4.83;;;14.50;99.90;;;;;;5069326;28;20207;-57
2021/07/30 04:26:12;;;;;;;5.77;4.90;;;14.80;99.90;;;;;;5067477;28;20355;-56
2021/07/30 04:28:38;;;;;;;5.37;4.87;;;14.80;99.90;;;;;;5066217;28;20201;-56
2021/07/30 04:31:04;;;;;;;6.27;4.53;;;14.60;99.90;;;;;;5071523;28;20211;-56
2021/07/30 04:33:32;;;;;;;5.40;4.90;;;14.80;99.90;;;;;;5071258;28;20172;-56
2021/07/30 04:35:58;;;;;;;4.82;4.43;;;14.80;99.90;;;;;;5071127;28;20210;-55
2021/07/30 04:38:24;;;;;;;7.60;5.50;;;14.80;99.90;;;;;;5086580;28;20642;-56
2021/07/30 04:40:49;;;;;;;5.47;4.77;;;14.80;99.90;;;;;;5070255;28;20182;-56
2021/07/30 04:43:15;;;;;;;5.80;5.30;;;14.80;99.90;;;;;;5070592;28;20734;-57
2021/07/30 04:45:40;;;;;;;6.00;5.40;;;14.80;99.90;;;;;;5069611;28;20207;-56
2021/07/30 04:48:06;;;;;;;7.13;5.60;;;14.90;99.90;;;;;;5069417;28;20734;-56
2021/07/30 04:50:32;;;;;;;6.27;5.77;;;14.90;99.90;;;;;;5069613;28;20180;-55
2021/07/30 04:52:57;;;;;;;8.40;5.53;;;14.90;99.90;;;;;;5065958;28;20172;-56
2021/07/30 04:55:23;;;;;;;7.50;6.80;;;14.80;99.90;;;;;;5066188;28;20211;-55
2021/07/30 04:57:50;;;;;;;6.43;5.57;;;15.10;99.90;;;;;;5064441;28;20644;-56
2021/07/30 05:00:16;;;;;;;5.15;4.68;;;15.30;99.90;;;;;;5058812;28;20284;-56
2021/07/30 05:02:42;;;;;;;6.17;5.50;;;15.40;99.90;;;;;;5067197;28;20363;-57
2021/07/30 05:05:08;;;;;;;7.10;6.40;;;15.40;99.90;;;;;;5069154;28;20439;-56
2021/07/30 05:07:33;;;;;;;7.10;5.40;;;15.50;99.90;;;;;;5070282;28;20208;-59
2021/07/30 05:09:59;;;;;;;7.40;5.33;;;15.60;99.90;;;;;;5067101;28;20176;-58
2021/07/30 05:12:25;;;;;;;5.80;5.30;;;15.50;99.90;;;;;;5068813;28;20605;-58
2021/07/30 05:14:51;;;;;;;6.07;5.57;;;15.80;99.90;;;;;;5065951;28;20220;-57
2021/07/30 05:17:16;;;;;;;6.30;5.40;;;15.60;99.90;;;;;;5061365;28;20267;-58
2021/07/30 05:19:42;;;;;;;7.80;5.63;;;16.00;99.90;;;;;;5067736;28;20272;-56
2021/07/30 05:22:08;;;;;;;6.07;5.40;;;16.20;99.90;;;;;;5064753;28;20197;-57
2021/07/30 05:24:37;;;;;;;8.40;5.37;;;16.10;99.90;;;;;;5065649;28;20185;-56
2021/07/30 05:27:06;;;;;;;6.57;5.55;;;16.20;99.90;;;;;;5073474;28;20298;-57
2021/07/30 05:29:33;;;;;;;5.75;5.15;;;16.40;99.90;;;;;;5068434;28;20624;-56
2021/07/30 05:31:59;;;;;;;5.43;5.03;;;16.40;99.90;;;;;;5069746;28;20577;-57
2021/07/30 05:34:25;;;;;;;7.77;5.97;;;16.70;99.90;;;;;;5070350;28;20180;-56
2021/07/30 05:36:51;;;;;;;6.60;5.27;;;16.50;99.90;;;;;;5067537;28;20451;-56
2021/07/30 05:39:16;;;;;;;7.57;6.77;;;16.80;99.90;;;;;;5071424;28;20865;-57
2021/07/30 05:41:42;;;;;;;7.43;6.73;;;16.80;99.90;;;;;;5066972;28;20232;-57
2021/07/30 05:44:08;;;;;;;6.30;5.70;;;16.90;99.90;;;;;;5073358;28;20197;-56
2021/07/30 05:46:36;;;;;;;7.53;6.83;;;17.10;99.90;;;;;;5072022;28;20211;-56
2021/07/30 05:49:02;;;;;;;7.47;6.47;;;17.20;99.90;;;;;;5062708;28;20178;-57
2021/07/30 05:51:28;;;;;;;8.73;6.50;;;17.40;99.90;;;;;;5071478;28;20177;-58
2021/07/30 05:53:54;;;;;;;6.20;5.60;;;17.40;99.90;;;;;;5067899;28;21101;-58
2021/07/30 05:56:20;;;;;;;7.87;6.07;;;17.30;99.90;;;;;;5065864;28;20465;-57
2021/07/30 05:58:45;;;;;;;8.10;7.30;;;17.50;99.90;;;;;;5069868;28;20234;-57
2021/07/30 06:01:13;;;;;;;6.40;5.70;;;17.90;99.90;;;;;;5068527;28;20644;-57
2021/07/30 06:03:39;;;;;;;9.50;6.35;;;18.10;99.90;;;;;;5077900;28;20187;-58
2021/07/30 06:06:04;;;;;;;6.78;5.45;;;18.20;99.90;;;;;;5062889;28;20213;-57
2021/07/30 06:08:30;;;;;;;6.90;6.20;;;18.30;99.90;;;;;;5072060;28;20259;-57
2021/07/30 06:10:55;;;;;;;7.90;6.00;;;18.50;99.90;;;;;;5076303;28;20180;-56
2021/07/30 06:13:21;;;;;;;6.23;5.70;;;18.50;99.90;;;;;;5074431;28;20280;-57
2021/07/30 06:15:47;;;;;;;6.97;5.70;;;18.60;99.90;;;;;;5068586;28;20694;-55
2021/07/30 06:18:12;;;;;;;7.23;5.50;;;18.70;99.90;;;;;;5066017;28;20204;-56
2021/07/30 06:20:38;;;;;;;7.13;5.30;;;18.70;99.90;;;;;;5071383;28;20176;-56
2021/07/30 06:23:03;;;;;;;8.13;5.47;;;18.80;99.90;;;;;;5076992;28;20280;-57
2021/07/30 06:25:29;;;;;;;6.57;5.33;;;18.90;99.90;;;;;;5072209;28;20286;-55
2021/07/30 06:27:55;;;;;;;6.43;5.50;;;19.00;99.90;;;;;;5062885;28;20208;-55
2021/07/30 06:30:21;;;;;;;7.43;6.72;;;19.00;99.90;;;;;;5070966;28;20192;-55
2021/07/30 06:32:46;;;;;;;7.63;5.20;;;19.10;99.90;;;;;;5070088;28;20193;-57
2021/07/30 06:35:15;;;;;;;6.40;4.93;;;19.30;99.90;;;;;;5071350;28;20659;-57
2021/07/30 06:37:41;;;;;;;5.55;5.05;;;19.50;99.90;;;;;;5068649;28;20184;-58
2021/07/30 06:40:07;;;;;;;5.20;4.70;;;19.60;99.90;;;;;;5065516;28;20647;-56
2021/07/30 06:42:33;;;;;;;5.40;4.90;;;19.70;99.90;;;;;;5072180;28;20549;-57
2021/07/30 06:44:59;;;;;;;5.55;4.72;;;19.80;99.90;;;;;;5068701;28;20777;-56
2021/07/30 06:47:25;;;;;;;5.50;5.00;;;20.00;99.90;;;;;;5083591;28;20220;-55
2021/07/30 06:49:51;;;;;;;7.17;4.60;;;20.20;99.90;;;;;;5068403;28;20438;-56
2021/07/30 06:52:17;;;;;;;5.20;4.67;;;20.80;99.90;;;;;;5070024;28;20269;-57
2021/07/30 06:54:43;;;;;;;5.88;5.03;;;21.10;99.90;;;;;;5067665;28;20552;-56
2021/07/30 06:57:11;;;;;;;5.30;4.80;;;21.30;99.90;;;;;;5066466;28;20205;-55
2021/07/30 06:59:36;;;;;;;9.27;8.48;;;21.50;99.80;;;;;;5064590;28;20823;-57
2021/07/30 07:02:02;;;;;;;7.93;7.13;;;21.60;99.60;;;;;;5069779;28;20181;-57
2021/07/30 07:04:28;;;;;;;6.47;5.40;;;21.40;99.40;;;;;;5063347;28;20189;-58
2021/07/30 07:06:54;;;;;;;7.00;4.60;;;22.00;99.00;;;;;;5066979;28;20474;-57
2021/07/30 07:09:20;;;;;;;9.00;5.23;;;22.60;98.00;;;;;;5067716;28;20504;-58
2021/07/30 07:11:46;;;;;;;5.10;4.70;;;23.10;96.50;;;;;;5066071;28;20539;-57
2021/07/30 07:14:13;;;;;;;5.50;4.60;;;24.50;95.10;;;;;;5066043;28;20462;-59
2021/07/30 07:16:41;;;;;;;5.13;4.63;;;26.50;91.90;;;;;;5063783;28;20473;-59
2021/07/30 07:19:09;;;;;;;6.10;4.67;;;28.30;86.10;;;;;;5085387;28;20446;-58
2021/07/30 07:21:38;;;;;;;7.63;4.50;;;29.70;78.10;;;;;;5069917;28;20443;-56
2021/07/30 07:24:05;;;;;;;12.83;4.60;;;31.20;72.40;;;;;;5066837;28;20443;-58
2021/07/30 07:26:32;;;;;;;4.50;4.10;;;32.90;65.40;;;;;;5065724;28;20475;-57
2021/07/30 07:28:58;;;;;;;6.93;4.63;;;34.00;59.60;;;;;;5068390;28;20872;-57
2021/07/30 07:31:23;;;;;;;4.47;4.07;;;34.70;57.90;;;;;;5064793;28;20436;-57
2021/07/30 07:33:49;;;;;;;6.63;4.90;;;36.00;55.00;;;;;;5064182;28;20180;-55
2021/07/30 07:36:14;;;;;;;5.90;5.10;;;35.80;52.50;;;;;;5065917;28;20204;-56
2021/07/30 07:38:42;;;;;;;4.77;4.40;;;35.80;52.20;;;;;;5064310;28;20499;-56
2021/07/30 07:41:08;;;;;;;5.63;4.77;;;35.80;51.00;;;;;;5066802;28;20184;-56
2021/07/30 07:43:35;;;;;;;5.70;5.17;;;35.80;50.80;;;;;;5067788;28;20834;-54
2021/07/30 07:46:01;;;;;;;5.30;4.83;;;35.70;50.20;;;;;;5069173;28;20731;-59
2021/07/30 07:48:27;;;;;;;5.03;4.53;;;36.20;49.00;;;;;;5066491;28;20431;-58
2021/07/30 07:50:52;;;;;;;4.73;4.43;;;36.30;48.80;;;;;;5073242;28;20192;-58
2021/07/30 07:53:18;;;;;;;3.87;3.57;;;36.30;49.20;;;;;;5066992;28;20573;-57
2021/07/30 07:55:44;;;;;;;4.63;4.23;;;36.80;48.10;;;;;;5062915;28;20220;-57
2021/07/30 07:58:10;;;;;;;4.87;4.47;;;36.60;47.50;;;;;;5065307;28;20447;-56
2021/07/30 08:00:36;;;;;;;5.00;4.60;;;37.00;46.30;;;;;;5068571;28;21004;-55
2021/07/30 08:03:02;;;;;;;5.33;4.97;;;37.30;45.60;;;;;;5067679;28;20188;-55
2021/07/30 08:05:28;;;;;;;4.90;4.50;;;37.80;45.00;;;;;;5068478;28;20835;-59
2021/07/30 08:07:54;;;;;;;5.23;4.83;;;37.20;45.90;;;;;;5067521;28;20473;-57
2021/07/30 08:10:20;;;;;;;4.80;4.40;;;37.60;45.00;;;;;;5064519;28;20447;-55
2021/07/30 08:12:46;;;;;;;4.80;4.40;;;37.10;44.70;;;;;;5072576;28;20184;-58
2021/07/30 08:15:13;;;;;;;5.23;4.83;;;36.90;45.70;;;;;;5070089;28;20216;-57
2021/07/30 08:17:39;;;;;;;4.90;4.60;;;37.40;45.40;;;;;;5063878;28;20455;-56
2021/07/30 08:20:07;;;;;;;4.50;4.10;;;36.90;45.90;;;;;;5069326;28;20450;-57
2021/07/30 08:22:33;;;;;;;4.40;4.00;;;37.60;45.10;;;;;;5063966;28;20815;-56
2021/07/30 08:24:59;;;;;;;4.33;3.87;;;38.10;42.80;;;;;;5079073;28;20491;-56
2021/07/30 08:27:24;;;;;;;4.30;4.00;;;37.80;43.80;;;;;;5062522;28;20475;-55
2021/07/30 08:29:50;;;;;;;5.13;4.73;;;37.30;44.00;;;;;;5069160;28;20626;-57
2021/07/30 08:32:17;;;;;;;4.50;4.20;;;37.50;43.10;;;;;;5072788;28;20192;-57
2021/07/30 08:34:43;;;;;;;5.00;4.60;;;37.60;43.70;;;;;;5066970;28;20185;-56
2021/07/30 08:37:10;;;;;;;4.80;4.50;;;37.80;43.30;;;;;;5067133;28;20451;-57
2021/07/30 08:39:36;;;;;;;4.90;4.60;;;37.20;43.70;;;;;;5068330;28;20787;-57
2021/07/30 08:42:03;;;;;;;4.70;4.30;;;38.10;43.30;;;;;;5069447;28;20469;-56
2021/07/30 08:44:28;;;;;;;5.47;5.03;;;38.60;42.10;;;;;;5062963;28;20522;-55
2021/07/30 08:46:55;;;;;;;4.80;4.40;;;38.40;41.70;;;;;;5065047;28;20483;-56
2021/07/30 08:49:21;;;;;;;4.40;4.10;;;37.90;41.80;;;;;;5073939;28;20272;-58
2021/07/30 08:51:50;;;;;;;5.57;5.17;;;38.00;40.50;;;;;;5071984;28;20868;-58
2021/07/30 08:54:16;;;;;;;5.37;4.97;;;37.60;41.10;;;;;;5066582;28;20863;-55
2021/07/30 08:56:43;;;;;;;11.77;10.87;;;38.20;41.10;;;;;;5066603;28;20475;-56
2021/07/30 08:59:09;;;;;;;5.93;5.43;;;38.30;40.20;;;;;;5075075;28;20541;-56
2021/07/30 09:01:36;;;;;;;4.67;4.37;;;37.50;41.30;;;;;;5067859;28;20444;-56
2021/07/30 09:04:02;;;;;;;4.90;4.50;;;37.40;40.60;;;;;;5072377;28;20455;-56
2021/07/30 09:06:28;;;;;;;4.67;4.30;;;37.90;40.70;;;;;;5071037;28;20486;-56
2021/07/30 09:09:04;;;;;;;5.03;4.73;;;38.50;40.10;;;;;;5064363;28;20446;-56
2021/07/30 09:11:31;;;;;;;5.63;5.10;;;38.00;40.50;;;;;;5068508;28;20805;-57
2021/07/30 09:13:58;;;;;;;5.43;4.37;;;38.10;40.60;;;;;;5062802;28;20459;-57
2021/07/30 09:16:24;;;;;;;5.50;5.10;;;37.40;41.10;;;;;;5068464;28;20450;-58
2021/07/30 09:18:51;;;;;;;5.47;5.07;;;37.50;41.70;;;;;;5068538;28;20822;-58
2021/07/30 09:21:24;;;;;;;5.40;4.90;;;38.40;40.70;;;;;;5067101;28;20230;-58
2021/07/30 09:23:50;;;;;;;5.37;4.70;;;38.20;40.50;;;;;;5079432;28;20880;-57
2021/07/30 09:26:34;;;;;;;6.10;4.37;;;38.50;40.70;;;;;;5069583;28;20498;-57
2021/07/30 09:29:19;;;;;;;5.00;4.60;;;38.80;39.80;;;;;;5070647;28;20191;-56
2021/07/30 09:31:49;;;;;;;4.97;4.57;;;39.00;40.00;;;;;;5079981;28;20965;-57
2021/07/30 09:34:27;;;;;;;5.17;4.77;;;38.80;39.60;;;;;;5071531;28;20524;-55
2021/07/30 09:37:00;;;;;;;5.57;5.17;;;39.20;39.20;;;;;;5070490;28;21001;-58
2021/07/30 09:39:32;;;;;;;6.30;5.10;;;39.20;39.40;;;;;;5073186;28;20438;-57
2021/07/30 09:42:08;;;;;;;5.07;4.67;;;39.30;38.90;;;;;;5064608;28;20879;-56
2021/07/30 09:44:44;;;;;;;5.47;5.07;;;39.30;39.40;;;;;;5070592;28;20906;-56
2021/07/30 09:47:24;;;;;;;4.97;4.67;;;39.10;39.30;;;;;;5063940;28;20944;-56
2021/07/30 09:49:59;;;;;;;5.47;5.07;;;39.20;39.60;;;;;;5065700;28;20538;-56
2021/07/30 09:52:33;;;;;;;14.40;5.30;;;39.00;39.20;;;;;;5069352;28;20438;-56
2021/07/30 09:55:04;;;;;;;5.63;5.23;;;39.30;39.50;;;;;;5075632;28;20488;-58
2021/07/30 09:57:31;;;;;;;5.43;5.00;;;39.30;39.10;;;;;;5069975;28;20610;-58
2021/07/30 10:00:03;;;;;;;6.20;5.00;;;39.40;39.40;;;;;;5068613;28;21029;-56
2021/07/30 10:02:31;;;;;;;6.20;5.70;;;39.00;39.70;;;;;;5076558;28;20577;-57
2021/07/30 10:04:57;;;;;;;11.93;9.20;;;39.00;39.90;;;;;;5081628;28;20444;-59
2021/07/30 10:07:25;;;;;;;7.13;5.40;;;39.30;39.70;;;;;;5069398;28;20466;-58
2021/07/30 10:12:24;;;;;;;6.20;5.60;;;38.40;41.00;;;;;;5074991;28;21036;-57
2021/07/30 10:14:51;;;;;;;6.03;5.43;;;37.80;41.20;;;;;;5067641;28;20967;-58
2021/07/30 10:17:24;;;;;;;5.87;5.37;;;36.40;43.70;;;;;;5067333;28;20440;-58
2021/07/30 10:19:50;;;;;;;5.57;5.17;;;36.10;44.40;;;;;;5070503;28;20946;-57
2021/07/30 10:22:17;;;;;;;5.70;5.20;;;35.70;45.30;;;;;;5075045;28;20447;-56
2021/07/30 10:24:50;;;;;;;5.70;5.20;;;35.10;45.70;;;;;;5073041;28;20312;-56
2021/07/30 10:27:19;;;;;;;5.03;4.73;;;34.00;48.10;;;;;;5071017;28;20502;-57
2021/07/30 10:30:05;;;;;;;5.60;5.10;;;33.40;49.10;;;;;;5069820;28;20499;-56
2021/07/30 10:32:56;;;;;;;6.73;6.20;;;32.90;50.10;;;;;;5066358;28;20578;-56
2021/07/30 10:35:27;;;;;;;6.37;5.73;;;32.20;51.30;;;;;;5059868;28;20478;-56
2021/07/30 10:38:15;;;;;;;5.37;4.97;;;31.50;52.70;;;;;;5065386;28;20451;-56
2021/07/30 10:40:42;;;;;;;6.23;5.73;;;31.10;53.90;;;;;;5062022;28;20853;-56
2021/07/30 10:43:12;;;;;;;6.57;6.07;;;30.70;54.70;;;;;;5061835;28;21031;-56
2021/07/30 10:45:43;;;;;;;8.93;6.10;;;30.50;56.10;;;;;;5068454;28;20996;-57
2021/07/30 10:48:15;;;;;;;6.10;5.60;;;30.50;55.80;;;;;;5067508;28;20442;-56
2021/07/30 10:50:43;;;;;;;6.50;6.00;;;30.60;56.50;;;;;;5068685;28;22622;-56
2021/07/30 10:53:33;;;;;;;6.20;5.60;;;30.40;55.50;;;;;;5066395;28;20753;-56
2021/07/30 10:56:00;;;;;;;6.40;6.00;;;30.30;57.00;;;;;;5065198;28;20527;-56
2021/07/30 10:58:44;;;;;;;6.23;5.63;;;30.20;56.40;;;;;;5068289;28;20799;-56
2021/07/30 11:01:11;;;;;;;6.03;5.50;;;29.80;57.70;;;;;;5065808;28;20915;-57
2021/07/30 11:03:51;;;;;;;6.50;5.90;;;29.90;58.00;;;;;;5068836;28;20513;-57
2021/07/30 11:06:45;;;;;;;6.33;5.73;;;29.80;58.10;;;;;;5066768;28;20473;-57
2021/07/30 11:09:18;;;;;;;11.60;7.60;;;29.80;58.50;;;;;;5054616;28;20787;-57
2021/07/30 11:11:57;;;;;;;5.70;5.20;;;29.70;58.80;;;;;;5067623;28;20794;-57
2021/07/30 11:14:50;;;;;;;6.20;5.70;;;29.60;59.40;;;;;;5065768;28;20474;-57
2021/07/30 11:17:16;;;;;;;5.97;5.47;;;29.50;58.70;;;;;;5064409;28;20855;-57
2021/07/30 11:19:47;;;;;;;5.53;5.03;;;29.20;59.50;;;;;;5067081;28;20449;-57
2021/07/30 11:22:18;;;;;;;6.20;5.57;;;29.00;60.00;;;;;;5064431;28;20443;-57
2021/07/30 11:24:47;;;;;;;6.13;5.50;;;29.00;60.50;;;;;;5066289;28;20502;-56
2021/07/30 11:27:15;;;;;;;6.33;5.67;;;29.00;61.20;;;;;;5066830;28;20520;-56
2021/07/30 11:29:48;;;;;;;6.13;5.63;;;28.90;61.40;;;;;;5064015;28;20479;-57
2021/07/30 11:32:15;;;;;;;6.60;6.10;;;28.90;61.30;;;;;;5062740;28;20957;-57
2021/07/30 11:34:45;;;;;;;5.73;5.23;;;28.90;61.50;;;;;;5068466;28;20427;-56
2021/07/30 11:37:12;;;;;;;8.60;6.30;;;29.20;61.60;;;;;;5067313;28;20509;-56
2021/07/30 11:39:40;;;;;;;5.73;5.23;;;29.80;59.50;;;;;;5067033;28;20831;-57
2021/07/30 11:42:07;;;;;;;6.00;5.40;;;30.20;59.30;;;;;;5062670;28;20442;-56
2021/07/30 11:44:46;;;;;;;5.83;5.33;;;30.20;58.50;;;;;;5069509;28;21015;-57
2021/07/30 11:47:13;;;;;;;5.47;5.07;;;30.40;57.50;;;;;;5069180;28;21062;-56
2021/07/30 11:49:40;;;;;;;7.00;6.30;;;30.40;58.00;;;;;;5073753;28;20438;-56
2021/07/30 11:52:10;;;;;;;6.40;5.80;;;30.60;57.80;;;;;;5066751;28;20439;-57
2021/07/30 11:54:35;;;;;;;6.60;5.53;;;31.10;57.40;;;;;;5067260;28;20937;-56
2021/07/30 11:57:01;;;;;;;6.50;5.33;;;31.10;57.00;;;;;;5064443;28;20539;-57
2021/07/30 11:59:43;;;;;;;6.70;6.10;;;31.30;56.00;;;;;;5065908;28;20456;-57
2021/07/30 12:02:08;;;;;;;5.60;5.10;;;31.20;56.60;;;;;;5067800;28;20246;-58
2021/07/30 12:04:35;;;;;;;5.70;5.30;;;31.20;56.90;;;;;;5070997;28;20443;-59
2021/07/30 12:07:13;;;;;;;5.93;5.20;;;31.10;57.00;;;;;;5069084;28;20304;-58
2021/07/30 12:09:40;;;;;;;5.50;5.10;;;31.00;56.70;;;;;;5066550;28;20442;-58
2021/07/30 12:12:08;;;;;;;5.80;5.40;;;30.70;57.10;;;;;;5069451;28;20948;-58
2021/07/30 12:14:34;;;;;;;6.07;5.50;;;30.30;58.40;;;;;;5060586;28;20436;-57
2021/07/30 12:17:01;;;;;;;5.97;5.47;;;30.20;58.80;;;;;;5065037;28;21018;-57
2021/07/30 12:19:30;;;;;;;6.03;5.53;;;30.20;59.50;;;;;;5068230;28;20448;-56
2021/07/30 12:22:08;;;;;;;5.77;5.30;;;30.20;59.60;;;;;;5069456;28;20438;-56
2021/07/30 12:24:46;;;;;;;6.20;5.70;;;30.20;59.80;;;;;;5059274;28;20811;-57
2021/07/30 12:27:20;;;;;;;7.70;6.90;;;30.00;60.30;;;;;;5059789;28;20481;-58
2021/07/30 12:29:48;;;;;;;6.70;6.10;;;30.20;60.40;;;;;;5070411;28;21016;-57
2021/07/30 12:32:25;;;;;;;7.43;6.40;;;30.10;59.90;;;;;;5066380;28;20443;-55
2021/07/30 12:35:06;;;;;;;7.13;6.53;;;30.10;60.90;;;;;;5068350;28;20437;-57
2021/07/30 12:37:33;;;;;;;6.30;5.80;;;30.00;61.50;;;;;;5064893;28;20446;-57
2021/07/30 12:40:01;;;;;;;7.27;6.60;;;29.80;61.20;;;;;;5068045;28;20441;-56
2021/07/30 12:42:32;;;;;;;7.10;6.50;;;29.70;61.80;;;;;;5066187;28;20462;-57
2021/07/30 12:45:12;;;;;;;6.40;5.87;;;29.80;62.40;;;;;;5068191;28;20453;-57
2021/07/30 12:47:47;;;;;;;5.50;5.00;;;29.50;63.50;;;;;;5066745;28;21042;-55
2021/07/30 12:50:27;;;;;;;6.70;6.10;;;29.60;63.20;;;;;;5074548;28;20812;-55